Time;durP1;ratioP1;P1;durP2;ratioP2;P2;SDS_P1;SDS_P2;PMS_P1;PMS_P2;Temp;Humidity;BMP_temperature;BMP_pressure;BME280_temperature;BME280_humidity;BME280_pressure;Samples;Min_cycle;Max_cycle;Signal;HPM_P1;HPM_P2
2024/01/01 00:00:19;;;;;;;316.95;200.57;;;4.20;1.00;;;;;;5028937;28;20060;-75
2024/01/01 00:02:48;;;;;;;250.27;149.85;;;4.10;1.00;;;;;;5041292;28;20113;-76
2024/01/01 00:05:23;;;;;;;277.42;168.60;;;4.10;99.90;;;;;;5057147;28;20056;-77
2024/01/01 00:07:53;;;;;;;215.05;132.77;;;4.10;1.00;;;;;;5034346;28;20041;-75
2024/01/01 00:10:20;;;;;;;262.65;161.98;;;4.10;1.00;;;;;;5043961;28;20077;-74
2024/01/01 00:12:58;;;;;;;218.73;132.55;;;4.20;1.00;;;;;;5042585;28;20041;-75
2024/01/01 00:15:26;;;;;;;255.95;152.23;;;4.20;1.00;;;;;;5045091;28;20358;-76
2024/01/01 00:17:56;;;;;;;264.27;160.85;;;4.30;99.90;;;;;;5043102;28;20037;-78
2024/01/01 00:20:28;;;;;;;261.23;157.55;;;4.30;99.90;;;;;;5044447;28;20105;-76
2024/01/01 00:23:00;;;;;;;254.10;156.35;;;4.30;1.00;;;;;;5028312;28;20140;-75
2024/01/01 00:25:32;;;;;;;246.68;151.90;;;4.40;1.00;;;;;;5020057;28;20516;-75
2024/01/01 00:28:03;;;;;;;249.10;153.98;;;4.40;1.00;;;;;;5045485;28;20030;-75
2024/01/01 00:30:38;;;;;;;240.70;147.95;;;4.40;99.90;;;;;;5048699;28;20049;-76
2024/01/01 00:33:06;;;;;;;218.95;136.27;;;4.20;1.00;;;;;;5048740;28;20037;-76
2024/01/01 00:35:39;;;;;;;236.95;141.02;;;4.20;1.00;;;;;;5049977;28;20048;-75
2024/01/01 00:38:09;;;;;;;266.00;162.48;;;4.30;49.50;;;;;;5029636;28;20248;-74
2024/01/01 00:40:39;;;;;;;265.30;158.85;;;4.40;1.00;;;;;;5020622;28;20061;-75
2024/01/01 00:43:08;;;;;;;244.25;141.25;;;4.50;1.00;;;;;;5027893;28;20053;-74
2024/01/01 00:45:38;;;;;;;245.20;144.55;;;4.50;1.00;;;;;;5024316;28;20109;-74
2024/01/01 00:48:08;;;;;;;273.90;158.82;;;4.60;1.00;;;;;;5026838;28;20049;-75
2024/01/01 00:50:37;;;;;;;260.65;150.32;;;4.60;1.00;;;;;;5021647;28;20057;-74
2024/01/01 00:53:07;;;;;;;271.55;152.35;;;4.60;99.90;;;;;;5026642;28;20046;-75
2024/01/01 00:55:34;;;;;;;231.30;131.70;;;4.70;99.90;;;;;;5048923;28;20100;-74
2024/01/01 00:58:12;;;;;;;;;;;;;;;;;;;;;
2024/01/01 01:00:44;;;;;;;198.40;115.28;;;4.80;99.90;;;;;;5046629;28;20042;-75
2024/01/01 01:03:12;;;;;;;198.43;116.68;;;4.80;99.90;;;;;;5026845;28;20034;-73
2024/01/01 01:05:41;;;;;;;213.55;121.40;;;4.90;1.00;;;;;;5026577;28;20042;-75
2024/01/01 01:08:09;;;;;;;206.88;117.35;;;4.90;99.90;;;;;;5028637;28;20137;-74
2024/01/01 01:10:37;;;;;;;232.13;131.00;;;5.00;99.90;;;;;;5028428;28;20057;-75
2024/01/01 01:13:05;;;;;;;224.43;126.43;;;4.90;99.90;;;;;;5028083;28;20049;-74
2024/01/01 01:15:35;;;;;;;202.50;117.22;;;4.80;1.00;;;;;;5028856;28;20402;-75
2024/01/01 01:18:08;;;;;;;184.25;106.82;;;4.80;1.00;;;;;;5026125;28;20441;-74
2024/01/01 01:20:35;;;;;;;203.65;114.60;;;4.70;1.00;;;;;;5025242;28;20049;-74
2024/01/01 01:23:08;;;;;;;195.38;109.90;;;4.70;99.90;;;;;;5022142;28;20046;-74
2024/01/01 01:25:38;;;;;;;196.63;112.10;;;4.70;1.00;;;;;;5022639;28;20052;-74
2024/01/01 01:28:07;;;;;;;216.38;115.85;;;4.80;1.00;;;;;;5024827;28;20561;-76
2024/01/01 01:30:35;;;;;;;200.02;112.32;;;4.70;1.00;;;;;;5026357;28;20042;-75
2024/01/01 01:33:06;;;;;;;214.23;117.68;;;4.70;1.00;;;;;;5021648;28;20068;-74
2024/01/01 01:35:38;;;;;;;207.63;115.07;;;4.70;99.90;;;;;;5026053;28;20152;-73
2024/01/01 01:38:06;;;;;;;179.45;103.57;;;4.80;73.80;;;;;;5022419;28;20041;-74
2024/01/01 01:40:35;;;;;;;190.90;106.55;;;4.90;1.00;;;;;;5038915;28;20022;-75
2024/01/01 01:43:02;;;;;;;187.13;105.97;;;4.80;1.00;;;;;;5042780;28;20073;-75
2024/01/01 01:45:30;;;;;;;184.80;107.50;;;4.80;1.00;;;;;;5028476;28;20568;-74
2024/01/01 01:47:58;;;;;;;183.60;107.97;;;4.70;39.00;;;;;;5034704;28;20045;-76
2024/01/01 01:50:27;;;;;;;160.80;94.18;;;4.70;1.00;;;;;;5038906;28;20046;-76
2024/01/01 01:52:55;;;;;;;135.63;77.07;;;4.70;99.90;;;;;;5044977;28;20080;-77
2024/01/01 01:55:24;;;;;;;103.45;59.60;;;4.80;1.00;;;;;;5049556;28;20042;-76
2024/01/01 01:57:57;;;;;;;159.63;90.75;;;4.90;1.00;;;;;;5045842;28;20059;-74
2024/01/01 02:00:25;;;;;;;159.57;88.03;;;5.00;1.00;;;;;;5051416;28;20042;-74
2024/01/01 02:02:58;;;;;;;152.15;85.68;;;5.10;1.00;;;;;;5026289;28;20068;-78
2024/01/01 02:05:30;;;;;;;148.25;84.68;;;5.10;99.90;;;;;;5023247;28;20140;-74
2024/01/01 02:08:04;;;;;;;128.30;74.65;;;5.00;1.00;;;;;;5024234;28;20516;-75
2024/01/01 02:10:32;;;;;;;124.28;73.70;;;4.90;1.00;;;;;;5022749;28;20054;-75
2024/01/01 02:13:01;;;;;;;129.27;76.32;;;5.00;1.00;;;;;;5029468;28;20050;-77
2024/01/01 02:15:29;;;;;;;158.75;97.45;;;5.00;1.00;;;;;;5047646;28;20046;-76
2024/01/01 02:17:57;;;;;;;164.73;104.93;;;5.00;1.00;;;;;;5031700;28;20046;-75
2024/01/01 02:20:27;;;;;;;146.77;90.65;;;5.00;1.00;;;;;;5030790;28;20517;-76
2024/01/01 02:22:57;;;;;;;134.38;81.72;;;5.10;1.00;;;;;;5031758;28;20088;-73
2024/01/01 02:25:27;;;;;;;120.55;76.18;;;5.20;1.00;;;;;;5020248;28;20046;-76
2024/01/01 02:27:54;;;;;;;125.68;77.15;;;5.30;99.90;;;;;;5033034;28;20046;-74
2024/01/01 02:30:22;;;;;;;120.13;74.80;;;5.30;99.90;;;;;;5036870;28;20080;-77
2024/01/01 02:32:52;;;;;;;125.30;78.97;;;5.40;99.90;;;;;;5033002;28;20053;-73
2024/01/01 02:35:19;;;;;;;127.60;82.55;;;5.40;1.00;;;;;;5022830;28;20111;-74
2024/01/01 02:37:47;;;;;;;119.95;77.97;;;5.40;1.00;;;;;;5024183;28;20073;-74
2024/01/01 02:40:20;;;;;;;117.40;72.32;;;5.40;1.00;;;;;;5027378;28;20045;-75
2024/01/01 02:42:47;;;;;;;118.80;73.80;;;5.40;1.00;;;;;;5026897;28;20045;-75
2024/01/01 02:45:15;;;;;;;128.63;80.07;;;5.50;31.90;;;;;;5027746;28;20061;-76
2024/01/01 02:47:43;;;;;;;106.53;64.57;;;5.40;1.00;;;;;;5025520;28;20088;-77
2024/01/01 02:50:11;;;;;;;123.45;72.35;;;5.50;1.00;;;;;;5045863;28;20096;-75
2024/01/01 02:52:38;;;;;;;111.47;65.78;;;5.60;1.00;;;;;;5025704;28;20071;-74
2024/01/01 02:55:07;;;;;;;102.72;59.83;;;5.70;1.00;;;;;;5022925;28;20042;-75
2024/01/01 02:57:36;;;;;;;95.10;55.53;;;5.70;1.00;;;;;;5021775;28;20049;-76
2024/01/01 03:00:04;;;;;;;94.75;56.63;;;5.70;99.90;;;;;;5031785;28;20048;-75
2024/01/01 03:02:32;;;;;;;92.95;54.35;;;5.70;99.90;;;;;;5027586;28;20049;-75
2024/01/01 03:05:00;;;;;;;87.05;52.17;;;5.80;99.90;;;;;;5020197;28;20141;-76
2024/01/01 03:07:28;;;;;;;87.28;53.25;;;5.90;1.00;;;;;;5022888;28;20112;-75
2024/01/01 03:09:55;;;;;;;100.28;61.10;;;5.70;1.00;;;;;;5021637;28;20049;-77
2024/01/01 03:12:23;;;;;;;88.50;52.38;;;5.60;1.00;;;;;;5015195;28;20048;-77
2024/01/01 03:14:54;;;;;;;72.93;42.88;;;5.70;1.00;;;;;;5027977;28;20149;-75
2024/01/01 03:17:22;;;;;;;87.95;51.40;;;5.80;42.80;;;;;;5036338;28;20045;-75
2024/01/01 03:19:50;;;;;;;96.63;56.28;;;5.80;99.90;;;;;;5018138;28;20050;-74
2024/01/01 03:22:18;;;;;;;74.70;47.50;;;5.70;1.00;;;;;;5022229;28;20045;-73
2024/01/01 03:24:48;;;;;;;83.10;49.13;;;5.80;1.00;;;;;;5025057;28;20053;-74
2024/01/01 03:27:17;;;;;;;83.18;50.38;;;5.80;1.00;;;;;;5025427;28;20050;-74
2024/01/01 03:29:44;;;;;;;82.32;47.47;;;5.80;1.00;;;;;;5027110;28;20042;-76
2024/01/01 03:32:14;;;;;;;61.67;38.95;;;5.90;1.00;;;;;;5037152;28;20050;-76
2024/01/01 03:34:43;;;;;;;68.82;39.47;;;5.90;1.00;;;;;;5029169;28;20212;-76
2024/01/01 03:37:11;;;;;;;63.08;38.30;;;5.90;1.00;;;;;;5039116;28;20050;-75
2024/01/01 03:39:40;;;;;;;56.17;34.47;;;5.80;99.90;;;;;;5023560;28;20042;-73
2024/01/01 03:42:08;;;;;;;58.75;35.88;;;5.80;1.00;;;;;;5025245;28;20053;-77
2024/01/01 03:44:35;;;;;;;68.07;40.72;;;5.90;1.00;;;;;;5032386;28;20053;-77
2024/01/01 03:47:03;;;;;;;60.83;36.30;;;6.00;1.00;;;;;;5045259;28;20070;-75
2024/01/01 03:49:33;;;;;;;70.85;38.35;;;6.00;1.00;;;;;;5042019;28;20065;-75
2024/01/01 03:52:05;;;;;;;90.68;52.00;;;6.10;99.90;;;;;;5024970;28;20095;-74
2024/01/01 03:54:41;;;;;;;79.95;46.67;;;6.00;1.00;;;;;;5045465;28;20050;-74
2024/01/01 03:57:09;;;;;;;82.00;46.65;;;6.00;99.90;;;;;;5021583;28;20103;-74
2024/01/01 03:59:37;;;;;;;81.32;48.13;;;5.90;99.90;;;;;;5020114;28;20042;-74
2024/01/01 04:02:05;;;;;;;92.18;52.03;;;5.90;1.00;;;;;;5047161;28;20051;-75
2024/01/01 04:04:36;;;;;;;98.53;57.33;;;5.80;99.90;;;;;;5025126;28;20070;-76
2024/01/01 04:07:04;;;;;;;113.80;65.68;;;5.80;99.90;;;;;;5022125;28;20041;-75
2024/01/01 04:09:33;;;;;;;99.70;57.55;;;5.70;99.90;;;;;;5025792;28;20046;-76
2024/01/01 04:12:01;;;;;;;93.43;54.55;;;5.70;1.00;;;;;;5036127;28;20056;-75
2024/01/01 04:14:32;;;;;;;83.90;49.20;;;5.70;1.00;;;;;;5041495;28;20133;-76
2024/01/01 04:17:03;;;;;;;73.35;45.55;;;5.80;1.00;;;;;;5060550;28;20042;-74
2024/01/01 04:19:34;;;;;;;77.78;46.17;;;5.80;99.90;;;;;;5057527;28;20049;-76
2024/01/01 04:22:04;;;;;;;82.57;47.67;;;5.70;1.00;;;;;;5042487;28;20057;-75
2024/01/01 04:24:32;;;;;;;90.13;51.78;;;5.50;1.00;;;;;;5027728;28;20070;-76
2024/01/01 04:27:00;;;;;;;86.82;53.03;;;5.60;1.00;;;;;;5028921;28;20034;-76
2024/01/01 04:29:30;;;;;;;85.85;51.33;;;5.50;1.00;;;;;;5041923;28;20061;-76
2024/01/01 04:31:59;;;;;;;86.88;55.95;;;5.50;1.00;;;;;;5035829;28;20044;-75
2024/01/01 04:34:28;;;;;;;117.90;76.80;;;5.50;1.00;;;;;;5022877;28;20050;-74
2024/01/01 04:36:56;;;;;;;119.03;73.03;;;5.40;1.00;;;;;;5025130;28;20498;-74
2024/01/01 04:39:25;;;;;;;110.82;74.65;;;5.40;1.00;;;;;;5026988;28;20049;-74
2024/01/01 04:41:56;;;;;;;107.53;71.05;;;5.40;1.00;;;;;;5025940;28;20133;-74
2024/01/01 04:44:24;;;;;;;113.75;72.55;;;5.40;1.00;;;;;;5025789;28;20069;-73
2024/01/01 04:46:52;;;;;;;105.38;68.82;;;5.40;1.00;;;;;;5022766;28;20045;-74
2024/01/01 04:49:20;;;;;;;108.05;68.55;;;5.50;1.00;;;;;;5024606;28;20045;-74
2024/01/01 04:51:50;;;;;;;96.10;59.05;;;5.50;13.60;;;;;;5024703;28;20042;-75
2024/01/01 04:54:20;;;;;;;87.82;54.15;;;5.60;1.00;;;;;;5018431;28;20046;-76
2024/01/01 04:56:49;;;;;;;78.80;49.92;;;5.60;1.00;;;;;;5024243;28;20068;-76
2024/01/01 04:59:16;;;;;;;80.93;51.05;;;5.60;1.00;;;;;;5033186;28;20049;-75
2024/01/01 05:01:46;;;;;;;71.45;47.75;;;5.60;1.00;;;;;;5027705;28;20049;-74
2024/01/01 05:04:13;;;;;;;72.10;48.13;;;5.70;1.00;;;;;;5024229;28;20460;-74
2024/01/01 05:06:41;;;;;;;77.38;51.47;;;5.60;1.00;;;;;;5028441;28;20030;-77
2024/01/01 05:09:09;;;;;;;75.75;47.58;;;5.60;1.00;;;;;;5052449;28;20026;-76
2024/01/01 05:11:41;;;;;;;76.93;50.90;;;5.50;1.00;;;;;;5043816;28;20045;-75
2024/01/01 05:14:17;;;;;;;74.95;49.00;;;5.50;1.00;;;;;;5037177;28;20470;-75
2024/01/01 05:16:47;;;;;;;73.00;48.88;;;5.50;1.00;;;;;;5022732;28;20048;-74
2024/01/01 05:19:16;;;;;;;77.05;47.10;;;5.50;1.00;;;;;;5022852;28;20054;-75
2024/01/01 05:21:46;;;;;;;108.32;65.45;;;5.30;1.00;;;;;;5022298;28;20498;-77
2024/01/01 05:24:16;;;;;;;90.95;54.53;;;5.40;1.00;;;;;;5026674;28;20633;-75
2024/01/01 05:26:44;;;;;;;76.13;47.40;;;5.30;1.00;;;;;;5026184;28;20038;-77
2024/01/01 05:29:14;;;;;;;76.57;44.35;;;5.30;1.00;;;;;;5045267;28;20048;-78
2024/01/01 05:31:42;;;;;;;72.93;44.45;;;5.40;13.90;;;;;;5056994;28;20061;-76
2024/01/01 05:34:09;;;;;;;75.55;42.30;;;5.40;1.00;;;;;;5024917;28;20045;-75
2024/01/01 05:36:37;;;;;;;85.82;51.28;;;5.20;1.00;;;;;;5022322;28;20053;-75
2024/01/01 05:39:07;;;;;;;91.88;53.35;;;5.10;82.10;;;;;;5023337;28;20046;-74
2024/01/01 05:41:35;;;;;;;82.90;47.05;;;5.10;99.90;;;;;;5017006;28;20136;-75
2024/01/01 05:44:04;;;;;;;78.25;44.97;;;5.20;99.90;;;;;;5004658;28;20496;-75
2024/01/01 05:46:35;;;;;;;60.45;33.83;;;5.20;99.90;;;;;;5023053;28;20092;-75
2024/01/01 05:49:04;;;;;;;58.00;35.80;;;5.20;99.90;;;;;;5046885;28;20046;-74
2024/01/01 05:51:34;;;;;;;78.00;45.35;;;5.30;99.90;;;;;;5031175;28;20110;-75
2024/01/01 05:54:02;;;;;;;79.63;49.22;;;5.30;85.30;;;;;;5024436;28;20045;-74
2024/01/01 05:56:32;;;;;;;79.20;47.55;;;5.20;13.60;;;;;;5023010;28;20046;-73
2024/01/01 05:59:00;;;;;;;85.65;50.45;;;5.10;31.70;;;;;;5024485;28;20041;-73
2024/01/01 06:01:28;;;;;;;83.00;49.72;;;5.00;1.00;;;;;;5021509;28;20557;-74
2024/01/01 06:04:00;;;;;;;79.28;47.00;;;4.90;99.90;;;;;;5024081;28;20053;-75
2024/01/01 06:06:34;;;;;;;82.88;49.80;;;4.90;99.90;;;;;;5047512;28;20045;-75
2024/01/01 06:09:03;;;;;;;83.68;49.15;;;5.00;99.90;;;;;;5021992;28;20042;-75
2024/01/01 06:11:31;;;;;;;71.80;44.85;;;5.00;99.90;;;;;;5020064;28;20042;-75
2024/01/01 06:14:02;;;;;;;77.88;44.55;;;5.00;99.90;;;;;;5031117;28;20116;-76
2024/01/01 06:16:30;;;;;;;73.82;42.33;;;5.10;99.90;;;;;;5037748;28;20046;-76
2024/01/01 06:19:00;;;;;;;55.67;33.17;;;5.10;99.90;;;;;;5043076;28;20061;-75
2024/01/01 06:21:33;;;;;;;56.35;38.50;;;5.30;99.90;;;;;;5048715;28;20030;-75
2024/01/01 06:24:01;;;;;;;50.58;32.83;;;5.50;99.90;;;;;;5041590;28;20064;-74
2024/01/01 06:26:31;;;;;;;45.47;30.15;;;5.50;99.90;;;;;;5042188;28;20040;-75
2024/01/01 06:29:01;;;;;;;60.03;38.53;;;5.60;99.90;;;;;;5040651;28;20054;-75
2024/01/01 06:31:30;;;;;;;60.45;38.78;;;5.60;99.90;;;;;;5043608;28;20030;-77
2024/01/01 06:34:05;;;;;;;65.63;39.25;;;5.50;99.90;;;;;;5044509;28;20117;-76
2024/01/01 06:36:33;;;;;;;62.83;38.35;;;5.50;99.90;;;;;;5034829;28;20022;-76
2024/01/01 06:39:04;;;;;;;59.58;38.90;;;5.50;99.90;;;;;;5047395;28;20047;-77
2024/01/01 06:41:32;;;;;;;52.72;33.63;;;5.50;39.50;;;;;;5068338;28;20044;-76
2024/01/01 06:43:59;;;;;;;56.38;36.83;;;5.50;1.00;;;;;;5039725;28;20049;-76
2024/01/01 06:46:27;;;;;;;50.80;34.17;;;5.50;1.00;;;;;;5028986;28;20084;-77
2024/01/01 06:48:58;;;;;;;50.63;33.05;;;5.50;29.90;;;;;;5037445;28;20037;-76
2024/01/01 06:51:27;;;;;;;47.80;32.33;;;5.50;99.90;;;;;;5030840;28;20045;-78
2024/01/01 06:53:55;;;;;;;32.20;21.98;;;5.50;7.10;;;;;;5029303;28;20046;-77
2024/01/01 06:56:23;;;;;;;41.55;24.25;;;5.80;99.90;;;;;;5036606;28;20484;-75
2024/01/01 06:58:51;;;;;;;60.78;38.33;;;6.30;99.90;;;;;;5047200;28;20051;-75
2024/01/01 07:01:22;;;;;;;55.97;35.55;;;6.40;1.00;;;;;;5043978;28;20050;-74
2024/01/01 07:03:50;;;;;;;53.63;34.78;;;6.40;1.00;;;;;;5042601;28;20065;-75
2024/01/01 07:06:18;;;;;;;49.00;31.02;;;6.40;99.90;;;;;;5044801;28;20026;-75
2024/01/01 07:08:48;;;;;;;45.38;25.70;;;6.20;1.00;;;;;;5042861;28;20065;-76
2024/01/01 07:11:18;;;;;;;49.83;30.83;;;6.40;1.00;;;;;;5033524;28;20056;-76
2024/01/01 07:13:50;;;;;;;50.45;30.40;;;6.40;1.00;;;;;;5024537;28;20052;-76
2024/01/01 07:16:18;;;;;;;49.13;30.10;;;6.40;99.90;;;;;;5020324;28;20049;-74
2024/01/01 07:18:48;;;;;;;48.40;29.80;;;6.40;99.90;;;;;;5021547;28;20065;-75
2024/01/01 07:21:18;;;;;;;48.25;30.23;;;6.50;99.90;;;;;;5025557;28;20045;-76
2024/01/01 07:23:47;;;;;;;46.28;29.73;;;6.60;99.90;;;;;;5024506;28;20046;-76
2024/01/01 07:26:22;;;;;;;47.17;29.30;;;6.80;79.40;;;;;;5019583;28;20079;-76
2024/01/01 07:29:06;;;;;;;48.60;30.95;;;7.00;1.00;;;;;;5026333;28;20112;-77
2024/01/01 07:31:40;;;;;;;49.88;29.65;;;7.20;99.90;;;;;;5026335;28;20073;-77
2024/01/01 07:34:18;;;;;;;48.13;29.90;;;7.40;99.90;;;;;;5023992;28;20070;-76
2024/01/01 07:36:57;;;;;;;45.75;28.88;;;7.70;1.00;;;;;;5030034;28;20065;-76
2024/01/01 07:39:50;;;;;;;;;;;;;;;;;;;;;
2024/01/01 07:42:53;;;;;;;;;;;;;;;;;;;;;
2024/01/01 07:45:26;;;;;;;;;;;8.20;1.00;;;;;;5032064;28;20065;-75
2024/01/01 07:48:46;;;;;;;46.15;29.33;;;8.30;99.90;;;;;;5033689;28;19951;-77
2024/01/01 07:51:20;;;;;;;49.42;29.77;;;8.40;1.00;;;;;;5033650;28;20037;-76
2024/01/01 07:54:18;;;;;;;48.28;29.42;;;8.40;6.60;;;;;;5037955;28;20121;-78
2024/01/01 07:59:58;;;;;;;47.25;31.33;;;8.60;1.00;;;;;;5012948;28;20052;-77
2024/01/01 08:02:38;;;;;;;52.35;33.53;;;8.80;1.00;;;;;;5029572;28;20132;-75
2024/01/01 08:05:24;;;;;;;49.47;33.10;;;8.80;1.00;;;;;;5024872;28;20042;-77
2024/01/01 08:08:30;;;;;;;58.58;36.28;;;8.90;1.00;;;;;;5026109;28;20449;-77
2024/01/01 08:11:21;;;;;;;56.63;35.55;;;8.90;1.00;;;;;;5022001;28;20045;-76
2024/01/01 08:14:22;;;;;;;79.57;53.72;;;9.00;99.90;;;;;;5024797;28;20046;-76
2024/01/01 08:17:25;;;;;;;94.07;58.67;;;9.10;1.00;;;;;;5027314;28;20397;-77
2024/01/01 08:20:21;;;;;;;115.35;74.57;;;9.20;1.00;;;;;;5042653;28;20129;-76
2024/01/01 08:23:01;;;;;;;118.93;76.50;;;9.30;99.90;;;;;;5038599;28;20040;-78
2024/01/01 08:26:02;;;;;;;;;;;;;;;;;;;;;
2024/01/01 08:32:21;;;;;;;;;;;;;;;;;;;;;
2024/01/01 08:35:31;;;;;;;116.65;75.55;;;9.80;1.00;;;;;;5024184;28;20050;-77
2024/01/01 08:38:17;;;;;;;117.75;77.40;;;9.90;99.90;;;;;;5023496;28;20045;-75
2024/01/01 08:41:05;;;;;;;122.57;76.50;;;10.10;1.00;;;;;;5022868;28;20048;-75
2024/01/01 08:43:50;;;;;;;122.20;77.28;;;10.10;99.90;;;;;;5027127;28;20049;-76
2024/01/01 08:46:24;;;;;;;133.15;80.10;;;10.10;99.90;;;;;;5025370;28;20099;-76
2024/01/01 08:49:09;;;;;;;133.95;80.63;;;10.20;1.00;;;;;;5029211;28;20111;-76
2024/01/01 08:52:14;;;;;;;118.30;73.15;;;10.30;1.00;;;;;;5027984;28;20478;-77
2024/01/01 08:58:27;;;;;;;116.45;73.47;;;10.60;99.90;;;;;;5034266;28;20321;-76
2024/01/01 09:01:18;;;;;;;;;;;;;;;;;;;;;
2024/01/01 09:25:46;;;;;;;74.20;52.75;;;12.40;1.00;;;;;;5138601;27;20361;-76
2024/01/01 09:29:23;;;;;;;;;;;;;;;;;;;;;
2024/01/01 09:43:18;;;;;;;106.55;73.88;;;13.10;99.90;;;;;;5004052;28;20089;-77
2024/01/01 09:47:09;;;;;;;;;;;;;;;;;;;;;
2024/01/01 09:50:07;;;;;;;112.45;77.38;;;13.20;99.90;;;;;;4990235;28;20050;-77
2024/01/01 09:53:54;;;;;;;130.45;89.78;;;13.20;99.90;;;;;;5029527;28;20057;-78
2024/01/01 09:57:39;;;;;;;130.18;80.95;;;13.30;99.90;;;;;;4962299;28;20079;-78
2024/01/01 10:08:13;;;;;;;43.88;26.50;;;13.30;99.90;;;;;;5079154;27;19917;-78
2024/01/01 10:10:58;;;;;;;;;;;;;;;;;;;;;
2024/01/01 10:13:38;;;;;;;10.48;6.45;;;12.00;1.00;;;;;;5099804;28;20106;-76
2024/01/01 10:16:09;;;;;;;12.77;6.25;;;11.40;1.00;;;;;;5103072;28;20492;-77
2024/01/01 10:18:42;;;;;;;16.80;6.07;;;10.90;1.00;;;;;;5106426;28;20117;-78
2024/01/01 10:21:15;;;;;;;7.05;4.68;;;10.60;99.90;;;;;;5101064;28;20032;-77
2024/01/01 10:30:31;;;;;;;10.57;6.82;;;9.80;35.80;;;;;;5100795;28;20078;-79
2024/01/01 10:33:34;;;;;;;9.97;5.87;;;9.70;1.00;;;;;;5100487;28;20143;-77
2024/01/01 10:36:17;;;;;;;9.23;6.05;;;9.60;99.90;;;;;;5097498;28;20040;-79
2024/01/01 10:38:50;;;;;;;9.75;6.57;;;9.10;99.90;;;;;;5099263;28;20091;-78
2024/01/01 10:41:30;;;;;;;8.73;4.93;;;9.10;99.90;;;;;;5112927;28;20058;-78
2024/01/01 10:44:02;;;;;;;9.77;5.82;;;8.90;99.90;;;;;;5123786;28;20066;-79
2024/01/01 10:46:34;;;;;;;12.27;5.28;;;8.90;99.90;;;;;;5118526;28;20066;-78
2024/01/01 10:49:07;;;;;;;5.47;3.30;;;8.70;99.90;;;;;;5121781;28;20044;-78
2024/01/01 10:51:57;;;;;;;7.20;4.57;;;8.60;99.90;;;;;;5121165;28;20049;-77
2024/01/01 10:54:59;;;;;;;7.30;4.80;;;8.50;99.90;;;;;;5121634;28;20448;-79
2024/01/01 10:57:53;;;;;;;10.32;5.55;;;8.50;99.90;;;;;;5092222;28;20051;-78
2024/01/01 11:00:41;;;;;;;8.35;5.18;;;8.60;99.90;;;;;;5118572;28;20028;-76
2024/01/01 11:03:23;;;;;;;12.40;5.70;;;8.60;99.90;;;;;;5121033;28;20044;-77
2024/01/01 11:06:10;;;;;;;;;;;;;;;;;;;;;
2024/01/01 11:22:55;;;;;;;;;;;;;;;;;;;;;
2024/01/01 11:25:58;;;;;;;7.95;4.43;;;8.30;99.90;;;;;;5080640;28;20076;-78
2024/01/01 11:28:48;;;;;;;7.20;3.65;;;8.40;99.90;;;;;;5088118;28;20123;-79
2024/01/01 11:31:41;;;;;;;9.23;5.10;;;8.30;99.90;;;;;;5070861;28;20143;-75
2024/01/01 11:34:56;;;;;;;;;;;;;;;;;;;;;
2024/01/01 11:37:41;;;;;;;;;;;;;;;;;;;;;
2024/01/01 11:40:45;;;;;;;;;;;;;;;;;;;;;
2024/01/01 11:44:05;;;;;;;22.98;13.07;;;8.00;99.90;;;;;;5076580;28;20233;-78
2024/01/01 11:59:56;;;;;;;12.20;6.75;;;8.60;99.90;;;;;;5087849;28;20071;-79
2024/01/01 12:02:32;;;;;;;14.52;7.25;;;8.80;99.90;;;;;;5098510;28;20036;-77
2024/01/01 12:05:21;;;;;;;;;;;;;;;;;;;;;
2024/01/01 12:08:14;;;;;;;27.40;16.52;;;9.00;99.90;;;;;;5081904;28;20046;-75
2024/01/01 12:11:07;;;;;;;16.80;10.20;;;9.10;99.90;;;;;;5085525;28;20104;-75
2024/01/01 12:13:43;;;;;;;12.75;8.18;;;9.20;99.90;;;;;;5093556;28;20040;-76
2024/01/01 12:16:29;;;;;;;15.88;9.57;;;9.30;99.90;;;;;;5079609;28;20070;-75
2024/01/01 12:19:05;;;;;;;15.88;10.32;;;9.30;1.00;;;;;;5085368;28;20071;-74
2024/01/01 12:21:51;;;;;;;15.00;8.52;;;9.40;1.00;;;;;;5083667;28;20036;-78
2024/01/01 12:24:26;;;;;;;18.83;10.32;;;9.40;99.90;;;;;;5088867;28;20086;-76
2024/01/01 12:27:04;;;;;;;22.50;12.10;;;9.30;53.60;;;;;;5084125;28;20043;-77
2024/01/01 12:29:59;;;;;;;17.98;11.40;;;9.20;1.00;;;;;;5087549;28;20044;-78
2024/01/01 12:32:36;;;;;;;23.88;12.88;;;9.20;1.00;;;;;;5093665;28;20159;-77
2024/01/01 12:35:18;;;;;;;21.65;13.38;;;9.30;1.00;;;;;;5086201;28;20488;-76
2024/01/01 12:37:50;;;;;;;23.05;13.55;;;9.30;99.90;;;;;;5088010;28;20044;-74
2024/01/01 12:40:44;;;;;;;29.67;16.10;;;9.30;1.00;;;;;;5096049;28;20063;-76
2024/01/01 12:43:13;;;;;;;29.58;17.35;;;9.20;1.00;;;;;;5084082;28;20060;-78
2024/01/01 12:45:52;;;;;;;25.95;16.33;;;9.20;99.90;;;;;;5085910;28;20040;-77
2024/01/01 12:48:24;;;;;;;23.13;14.13;;;9.20;99.90;;;;;;5082171;28;20098;-76
2024/01/01 12:50:57;;;;;;;21.02;14.13;;;9.20;1.00;;;;;;5081202;28;20049;-76
2024/01/01 12:53:37;;;;;;;21.70;14.38;;;9.20;1.00;;;;;;5087857;28;20285;-76
2024/01/01 12:56:20;;;;;;;18.45;12.27;;;9.20;1.00;;;;;;5093075;28;20499;-77
2024/01/01 12:59:22;;;;;;;18.70;11.52;;;9.10;1.00;;;;;;5087836;28;20098;-78
2024/01/01 13:02:05;;;;;;;19.63;12.60;;;9.10;1.00;;;;;;5059768;28;20090;-76
2024/01/01 13:05:01;;;;;;;22.50;14.10;;;9.00;99.90;;;;;;5084333;28;20032;-78
2024/01/01 13:11:05;;;;;;;16.83;11.23;;;8.90;99.90;;;;;;5073796;28;20048;-77
2024/01/01 13:13:51;;;;;;;16.42;11.23;;;8.90;1.00;;;;;;5101735;28;20040;-78
2024/01/01 13:16:50;;;;;;;17.20;11.25;;;8.90;99.90;;;;;;5103609;28;20503;-77
2024/01/01 13:19:26;;;;;;;13.30;8.75;;;8.90;99.90;;;;;;5090658;28;20073;-76
2024/01/01 13:22:13;;;;;;;12.95;8.55;;;8.90;1.00;;;;;;5084350;28;20036;-77
2024/01/01 13:25:15;;;;;;;16.95;10.95;;;9.00;46.80;;;;;;5085015;28;20055;-76
2024/01/01 13:28:03;;;;;;;20.17;13.40;;;9.00;1.00;;;;;;5093577;28;20052;-76
2024/01/01 13:30:54;;;;;;;19.83;12.10;;;9.00;1.00;;;;;;5089153;28;20059;-76
2024/01/01 13:33:37;;;;;;;27.48;12.68;;;9.00;1.00;;;;;;5089505;28;20044;-77
2024/01/01 13:36:41;;;;;;;22.17;13.38;;;9.00;1.00;;;;;;5078311;28;20043;-77
2024/01/01 13:39:46;;;;;;;21.67;12.00;;;8.90;1.00;;;;;;5051684;28;20051;-77
2024/01/01 13:42:29;;;;;;;18.55;11.68;;;8.90;1.00;;;;;;5086813;28;20048;-77
2024/01/01 13:45:11;;;;;;;15.82;10.10;;;8.90;1.00;;;;;;5084622;28;20062;-77
2024/01/01 13:47:51;;;;;;;18.92;11.13;;;8.80;1.00;;;;;;5088499;28;20044;-77
2024/01/01 13:50:30;;;;;;;14.82;9.38;;;8.70;1.00;;;;;;5084925;28;20040;-77
2024/01/01 13:53:09;;;;;;;16.38;10.15;;;8.70;1.00;;;;;;5086923;28;20045;-77
2024/01/01 13:56:04;;;;;;;17.55;10.82;;;8.70;1.00;;;;;;5095212;28;20059;-76
2024/01/01 14:03:15;;;;;;;20.13;11.82;;;8.80;1.00;;;;;;5037527;28;20040;-78
2024/01/01 14:09:45;;;;;;;;;;;;;;;;;;;;;
2024/01/01 14:12:51;;;;;;;28.40;17.08;;;8.60;1.00;;;;;;5087418;28;20036;-77
2024/01/01 14:15:37;;;;;;;39.38;24.08;;;8.50;99.90;;;;;;5091902;28;20048;-77
2024/01/01 14:25:46;;;;;;;27.50;17.83;;;8.30;99.90;;;;;;5088326;28;20112;-77
2024/01/01 14:29:19;;;;;;;;;;;;;;;;;;;;;
2024/01/01 14:32:44;;;;;;;37.30;22.58;;;8.30;99.90;;;;;;5081021;28;20044;-78
2024/01/01 14:35:55;;;;;;;78.65;43.78;;;8.20;99.90;;;;;;5083257;28;20056;-77
2024/01/01 14:39:10;;;;;;;66.28;36.72;;;8.40;1.00;;;;;;5080316;28;20048;-79
2024/01/01 14:42:15;;;;;;;51.13;33.80;;;8.30;99.90;;;;;;5100013;28;20043;-78
2024/01/01 14:48:31;;;;;;;37.30;26.83;;;8.10;1.00;;;;;;5099332;28;20083;-79
2024/01/01 14:55:38;;;;;;;;;;;;;;;;;;;;;
2024/01/01 15:13:18;;;;;;;141.05;90.40;;;7.90;79.80;;;;;;5015614;28;20545;-76
2024/01/01 15:16:00;;;;;;;137.77;86.80;;;7.90;1.00;;;;;;5007115;28;20398;-76
2024/01/01 15:18:45;;;;;;;98.85;64.70;;;7.70;1.00;;;;;;5017188;28;20037;-75
2024/01/01 15:21:18;;;;;;;94.38;56.15;;;7.70;99.90;;;;;;5029303;28;20034;-76
2024/01/01 15:24:37;;;;;;;93.00;57.15;;;7.70;99.90;;;;;;5009091;28;20582;-76
2024/01/01 15:27:28;;;;;;;95.03;59.30;;;7.80;99.90;;;;;;5005685;28;20058;-75
2024/01/01 15:30:15;;;;;;;100.90;63.30;;;7.80;99.90;;;;;;5004604;28;20042;-76
2024/01/01 15:33:41;;;;;;;113.68;71.05;;;7.60;29.40;;;;;;5020085;28;20057;-76
2024/01/01 15:36:34;;;;;;;116.88;70.22;;;7.60;99.90;;;;;;5004726;28;20080;-77
2024/01/01 15:39:09;;;;;;;117.15;72.78;;;7.70;99.90;;;;;;5056175;28;20057;-76
2024/01/01 15:41:45;;;;;;;120.82;72.88;;;7.70;99.90;;;;;;5090738;28;20083;-74
2024/01/01 15:44:24;;;;;;;129.20;80.22;;;7.70;99.90;;;;;;5093801;28;20040;-76
2024/01/01 15:47:05;;;;;;;115.75;71.55;;;7.60;99.90;;;;;;5096792;28;20036;-76
2024/01/01 15:49:37;;;;;;;141.35;85.25;;;7.40;99.90;;;;;;5084904;28;20056;-77
2024/01/01 15:55:14;;;;;;;109.53;68.72;;;7.40;99.90;;;;;;5103690;28;20082;-75
2024/01/01 15:57:54;;;;;;;120.43;71.22;;;7.50;99.90;;;;;;5080160;28;20071;-76
2024/01/01 16:00:40;;;;;;;;;;;;;;;;;;;;;
2024/01/01 16:03:19;;;;;;;178.75;104.93;;;7.60;99.90;;;;;;5086272;28;20040;-77
2024/01/01 16:05:55;;;;;;;214.50;123.15;;;7.60;99.90;;;;;;5085148;28;20052;-77